sensor_id;sensor_type;location;lat;lon;timestamp;P1;durP1;ratioP1;P2;durP2;ratioP2
27402;SDS011;14862;49.494;8.530;2023-07-13T00:01:57;2.40;;;1.33;;
27402;SDS011;14862;49.494;8.530;2023-07-13T00:04:23;2.58;;;1.38;;
27402;SDS011;14862;49.494;8.530;2023-07-13T00:06:50;5.07;;;1.42;;
27402;SDS011;14862;49.494;8.530;2023-07-13T00:09:15;1.77;;;1.23;;
27402;SDS011;14862;49.494;8.530;2023-07-13T00:11:41;2.58;;;1.02;;
27402;SDS011;14862;49.494;8.530;2023-07-13T00:14:06;2.13;;;1.30;;
27402;SDS011;14862;49.494;8.530;2023-07-13T00:16:33;3.88;;;1.20;;
27402;SDS011;14862;49.494;8.530;2023-07-13T00:18:58;3.22;;;1.40;;
27402;SDS011;14862;49.494;8.530;2023-07-13T00:21:25;4.07;;;1.60;;
27402;SDS011;14862;49.494;8.530;2023-07-13T00:23:50;2.85;;;1.40;;
27402;SDS011;14862;49.494;8.530;2023-07-13T00:26:15;2.00;;;1.23;;
27402;SDS011;14862;49.494;8.530;2023-07-13T00:28:42;2.40;;;1.42;;
27402;SDS011;14862;49.494;8.530;2023-07-13T00:31:08;2.92;;;1.38;;
27402;SDS011;14862;49.494;8.530;2023-07-13T00:33:33;3.00;;;1.40;;
27402;SDS011;14862;49.494;8.530;2023-07-13T00:35:59;3.10;;;1.33;;
27402;SDS011;14862;49.494;8.530;2023-07-13T00:38:24;3.33;;;1.20;;
27402;SDS011;14862;49.494;8.530;2023-07-13T00:40:49;2.33;;;1.67;;
27402;SDS011;14862;49.494;8.530;2023-07-13T00:43:18;2.20;;;1.30;;
27402;SDS011;14862;49.494;8.530;2023-07-13T00:48:14;2.17;;;1.47;;
27402;SDS011;14862;49.494;8.530;2023-07-13T00:50:39;2.88;;;1.40;;
27402;SDS011;14862;49.494;8.530;2023-07-13T00:53:05;2.83;;;1.30;;
27402;SDS011;14862;49.494;8.530;2023-07-13T00:55:30;2.42;;;1.45;;
27402;SDS011;14862;49.494;8.530;2023-07-13T00:57:55;3.80;;;1.40;;
27402;SDS011;14862;49.494;8.530;2023-07-13T01:00:21;3.20;;;1.50;;
27402;SDS011;14862;49.494;8.530;2023-07-13T01:02:47;2.70;;;2.10;;
27402;SDS011;14862;49.494;8.530;2023-07-13T01:05:13;1.52;;;1.20;;
27402;SDS011;14862;49.494;8.530;2023-07-13T01:07:39;1.65;;;1.30;;
27402;SDS011;14862;49.494;8.530;2023-07-13T01:10:05;3.88;;;2.60;;
27402;SDS011;14862;49.494;8.530;2023-07-13T01:12:30;3.45;;;1.80;;
27402;SDS011;14862;49.494;8.530;2023-07-13T01:14:57;3.65;;;1.83;;
27402;SDS011;14862;49.494;8.530;2023-07-13T01:17:22;2.60;;;1.40;;
27402;SDS011;14862;49.494;8.530;2023-07-13T01:19:47;2.07;;;1.47;;
27402;SDS011;14862;49.494;8.530;2023-07-13T01:22:14;2.65;;;1.60;;
27402;SDS011;14862;49.494;8.530;2023-07-13T01:24:40;3.67;;;1.63;;
27402;SDS011;14862;49.494;8.530;2023-07-13T01:27:06;2.45;;;1.50;;
27402;SDS011;14862;49.494;8.530;2023-07-13T01:29:32;2.45;;;1.50;;
27402;SDS011;14862;49.494;8.530;2023-07-13T01:31:57;2.17;;;1.45;;
27402;SDS011;14862;49.494;8.530;2023-07-13T01:34:24;2.85;;;1.45;;
27402;SDS011;14862;49.494;8.530;2023-07-13T01:36:49;3.50;;;1.80;;
27402;SDS011;14862;49.494;8.530;2023-07-13T01:39:14;3.58;;;1.67;;
27402;SDS011;14862;49.494;8.530;2023-07-13T01:41:40;2.15;;;1.55;;
27402;SDS011;14862;49.494;8.530;2023-07-13T01:44:06;3.47;;;1.60;;
27402;SDS011;14862;49.494;8.530;2023-07-13T01:46:31;1.50;;;1.40;;
27402;SDS011;14862;49.494;8.530;2023-07-13T01:48:56;3.77;;;1.50;;
27402;SDS011;14862;49.494;8.530;2023-07-13T01:51:21;4.03;;;2.03;;
27402;SDS011;14862;49.494;8.530;2023-07-13T01:53:46;3.33;;;1.70;;
27402;SDS011;14862;49.494;8.530;2023-07-13T01:56:12;3.10;;;1.38;;
27402;SDS011;14862;49.494;8.530;2023-07-13T01:58:37;1.80;;;1.67;;
27402;SDS011;14862;49.494;8.530;2023-07-13T02:01:02;2.43;;;1.60;;
27402;SDS011;14862;49.494;8.530;2023-07-13T02:03:28;4.90;;;1.58;;
27402;SDS011;14862;49.494;8.530;2023-07-13T02:05:53;6.87;;;1.80;;
27402;SDS011;14862;49.494;8.530;2023-07-13T02:08:18;2.87;;;1.67;;
27402;SDS011;14862;49.494;8.530;2023-07-13T02:10:43;2.90;;;1.73;;
27402;SDS011;14862;49.494;8.530;2023-07-13T02:13:08;3.63;;;1.57;;
27402;SDS011;14862;49.494;8.530;2023-07-13T02:15:34;4.07;;;1.87;;
27402;SDS011;14862;49.494;8.530;2023-07-13T02:17:59;4.77;;;1.33;;
27402;SDS011;14862;49.494;8.530;2023-07-13T02:20:24;1.90;;;1.50;;
27402;SDS011;14862;49.494;8.530;2023-07-13T02:22:51;4.05;;;1.60;;
27402;SDS011;14862;49.494;8.530;2023-07-13T02:25:16;3.75;;;2.25;;
27402;SDS011;14862;49.494;8.530;2023-07-13T02:27:41;3.60;;;1.97;;
27402;SDS011;14862;49.494;8.530;2023-07-13T02:30:07;2.30;;;2.10;;
27402;SDS011;14862;49.494;8.530;2023-07-13T02:32:32;3.30;;;2.25;;
27402;SDS011;14862;49.494;8.530;2023-07-13T02:34:58;4.25;;;2.17;;
27402;SDS011;14862;49.494;8.530;2023-07-13T02:37:23;2.50;;;2.13;;
27402;SDS011;14862;49.494;8.530;2023-07-13T02:39:49;5.25;;;2.33;;
27402;SDS011;14862;49.494;8.530;2023-07-13T02:42:14;5.33;;;2.60;;
27402;SDS011;14862;49.494;8.530;2023-07-13T02:44:39;4.40;;;2.45;;
27402;SDS011;14862;49.494;8.530;2023-07-13T02:47:04;4.27;;;2.60;;
27402;SDS011;14862;49.494;8.530;2023-07-13T02:49:30;4.43;;;2.28;;
27402;SDS011;14862;49.494;8.530;2023-07-13T02:51:55;2.88;;;2.30;;
27402;SDS011;14862;49.494;8.530;2023-07-13T02:54:20;4.67;;;2.13;;
27402;SDS011;14862;49.494;8.530;2023-07-13T02:56:45;3.20;;;1.95;;
27402;SDS011;14862;49.494;8.530;2023-07-13T02:59:11;3.17;;;2.00;;
27402;SDS011;14862;49.494;8.530;2023-07-13T03:01:37;2.90;;;2.10;;
27402;SDS011;14862;49.494;8.530;2023-07-13T03:04:02;4.22;;;2.15;;
27402;SDS011;14862;49.494;8.530;2023-07-13T03:06:27;3.65;;;2.28;;
27402;SDS011;14862;49.494;8.530;2023-07-13T03:08:55;3.33;;;2.30;;
27402;SDS011;14862;49.494;8.530;2023-07-13T03:11:20;4.18;;;2.05;;
27402;SDS011;14862;49.494;8.530;2023-07-13T03:13:46;4.40;;;2.17;;
27402;SDS011;14862;49.494;8.530;2023-07-13T03:16:11;8.23;;;2.72;;
27402;SDS011;14862;49.494;8.530;2023-07-13T03:18:37;2.63;;;2.20;;
27402;SDS011;14862;49.494;8.530;2023-07-13T03:21:03;7.10;;;2.90;;
27402;SDS011;14862;49.494;8.530;2023-07-13T03:23:28;6.25;;;2.67;;
27402;SDS011;14862;49.494;8.530;2023-07-13T03:28:27;4.82;;;3.13;;
27402;SDS011;14862;49.494;8.530;2023-07-13T03:31:03;6.70;;;2.90;;
27402;SDS011;14862;49.494;8.530;2023-07-13T03:33:29;4.50;;;2.83;;
27402;SDS011;14862;49.494;8.530;2023-07-13T03:35:54;7.07;;;3.40;;
27402;SDS011;14862;49.494;8.530;2023-07-13T03:38:19;5.13;;;2.70;;
27402;SDS011;14862;49.494;8.530;2023-07-13T03:40:45;3.42;;;2.83;;
27402;SDS011;14862;49.494;8.530;2023-07-13T03:43:10;6.53;;;2.50;;
27402;SDS011;14862;49.494;8.530;2023-07-13T03:45:37;4.60;;;2.50;;
27402;SDS011;14862;49.494;8.530;2023-07-13T03:48:03;5.32;;;2.60;;
27402;SDS011;14862;49.494;8.530;2023-07-13T03:50:28;3.42;;;2.13;;
27402;SDS011;14862;49.494;8.530;2023-07-13T03:52:53;5.83;;;2.47;;
27402;SDS011;14862;49.494;8.530;2023-07-13T03:55:18;2.77;;;2.20;;
27402;SDS011;14862;49.494;8.530;2023-07-13T03:57:43;4.87;;;2.10;;
27402;SDS011;14862;49.494;8.530;2023-07-13T04:00:09;2.63;;;1.90;;
27402;SDS011;14862;49.494;8.530;2023-07-13T04:02:35;3.53;;;1.50;;
27402;SDS011;14862;49.494;8.530;2023-07-13T04:05:02;7.00;;;2.05;;
27402;SDS011;14862;49.494;8.530;2023-07-13T04:07:27;5.07;;;1.83;;
27402;SDS011;14862;49.494;8.530;2023-07-13T04:09:52;4.03;;;1.87;;
27402;SDS011;14862;49.494;8.530;2023-07-13T04:12:18;6.20;;;1.87;;
27402;SDS011;14862;49.494;8.530;2023-07-13T04:14:43;4.30;;;2.10;;
27402;SDS011;14862;49.494;8.530;2023-07-13T04:17:08;1.95;;;1.75;;
27402;SDS011;14862;49.494;8.530;2023-07-13T04:19:34;5.00;;;2.10;;
27402;SDS011;14862;49.494;8.530;2023-07-13T04:21:59;4.33;;;1.93;;
27402;SDS011;14862;49.494;8.530;2023-07-13T04:24:24;6.23;;;1.97;;
27402;SDS011;14862;49.494;8.530;2023-07-13T04:26:49;2.57;;;1.70;;
27402;SDS011;14862;49.494;8.530;2023-07-13T04:29:14;3.15;;;1.80;;
27402;SDS011;14862;49.494;8.530;2023-07-13T04:31:40;4.88;;;2.35;;
27402;SDS011;14862;49.494;8.530;2023-07-13T04:34:05;3.85;;;1.95;;
27402;SDS011;14862;49.494;8.530;2023-07-13T04:36:30;3.17;;;1.90;;
27402;SDS011;14862;49.494;8.530;2023-07-13T04:38:56;3.45;;;1.88;;
27402;SDS011;14862;49.494;8.530;2023-07-13T04:41:21;4.68;;;2.08;;
27402;SDS011;14862;49.494;8.530;2023-07-13T04:43:47;3.10;;;1.63;;
27402;SDS011;14862;49.494;8.530;2023-07-13T04:46:13;3.63;;;1.88;;
27402;SDS011;14862;49.494;8.530;2023-07-13T04:48:39;4.57;;;2.13;;
27402;SDS011;14862;49.494;8.530;2023-07-13T04:51:05;5.13;;;1.83;;
27402;SDS011;14862;49.494;8.530;2023-07-13T04:53:30;3.45;;;1.70;;
27402;SDS011;14862;49.494;8.530;2023-07-13T04:55:56;3.25;;;2.00;;
27402;SDS011;14862;49.494;8.530;2023-07-13T04:58:21;3.58;;;1.67;;
27402;SDS011;14862;49.494;8.530;2023-07-13T05:00:47;4.88;;;2.35;;
27402;SDS011;14862;49.494;8.530;2023-07-13T05:03:12;5.97;;;2.00;;
27402;SDS011;14862;49.494;8.530;2023-07-13T05:05:38;4.47;;;2.13;;
27402;SDS011;14862;49.494;8.530;2023-07-13T05:08:03;3.50;;;1.87;;
27402;SDS011;14862;49.494;8.530;2023-07-13T05:10:28;4.25;;;2.35;;
27402;SDS011;14862;49.494;8.530;2023-07-13T05:12:53;3.90;;;1.50;;
27402;SDS011;14862;49.494;8.530;2023-07-13T05:15:21;1.80;;;1.65;;
27402;SDS011;14862;49.494;8.530;2023-07-13T05:17:49;6.55;;;2.28;;
27402;SDS011;14862;49.494;8.530;2023-07-13T05:20:15;3.88;;;2.05;;
27402;SDS011;14862;49.494;8.530;2023-07-13T05:22:41;3.15;;;1.60;;
27402;SDS011;14862;49.494;8.530;2023-07-13T05:25:06;3.50;;;2.03;;
27402;SDS011;14862;49.494;8.530;2023-07-13T05:27:31;3.45;;;1.80;;
27402;SDS011;14862;49.494;8.530;2023-07-13T05:29:57;4.88;;;1.88;;
27402;SDS011;14862;49.494;8.530;2023-07-13T05:32:22;3.70;;;1.93;;
27402;SDS011;14862;49.494;8.530;2023-07-13T05:34:47;5.47;;;1.87;;
27402;SDS011;14862;49.494;8.530;2023-07-13T05:37:12;3.27;;;1.90;;
27402;SDS011;14862;49.494;8.530;2023-07-13T05:39:37;5.73;;;1.97;;
27402;SDS011;14862;49.494;8.530;2023-07-13T05:42:03;4.00;;;2.08;;
27402;SDS011;14862;49.494;8.530;2023-07-13T05:44:28;5.70;;;2.22;;
27402;SDS011;14862;49.494;8.530;2023-07-13T05:46:53;4.83;;;2.10;;
27402;SDS011;14862;49.494;8.530;2023-07-13T05:49:21;4.97;;;1.90;;
27402;SDS011;14862;49.494;8.530;2023-07-13T05:51:46;3.73;;;2.40;;
27402;SDS011;14862;49.494;8.530;2023-07-13T05:54:11;4.77;;;2.37;;
27402;SDS011;14862;49.494;8.530;2023-07-13T05:56:36;8.02;;;1.90;;
27402;SDS011;14862;49.494;8.530;2023-07-13T05:59:01;3.33;;;1.83;;
27402;SDS011;14862;49.494;8.530;2023-07-13T06:01:27;5.55;;;2.42;;
27402;SDS011;14862;49.494;8.530;2023-07-13T06:03:52;4.70;;;1.90;;
27402;SDS011;14862;49.494;8.530;2023-07-13T06:06:17;2.93;;;1.77;;
27402;SDS011;14862;49.494;8.530;2023-07-13T06:08:42;4.95;;;2.38;;
27402;SDS011;14862;49.494;8.530;2023-07-13T06:11:10;7.13;;;1.88;;
27402;SDS011;14862;49.494;8.530;2023-07-13T06:13:37;2.63;;;1.67;;
27402;SDS011;14862;49.494;8.530;2023-07-13T06:16:02;2.92;;;1.70;;
27402;SDS011;14862;49.494;8.530;2023-07-13T06:18:29;4.05;;;1.55;;
27402;SDS011;14862;49.494;8.530;2023-07-13T06:20:55;3.40;;;1.67;;
27402;SDS011;14862;49.494;8.530;2023-07-13T06:23:20;5.07;;;1.80;;
27402;SDS011;14862;49.494;8.530;2023-07-13T06:25:45;3.87;;;1.50;;
27402;SDS011;14862;49.494;8.530;2023-07-13T06:28:10;2.80;;;1.70;;
27402;SDS011;14862;49.494;8.530;2023-07-13T06:30:37;6.40;;;1.50;;
27402;SDS011;14862;49.494;8.530;2023-07-13T06:33:02;4.30;;;1.40;;
27402;SDS011;14862;49.494;8.530;2023-07-13T06:35:28;5.15;;;1.45;;
27402;SDS011;14862;49.494;8.530;2023-07-13T06:37:53;2.47;;;1.50;;
27402;SDS011;14862;49.494;8.530;2023-07-13T06:40:18;4.33;;;1.97;;
27402;SDS011;14862;49.494;8.530;2023-07-13T06:42:43;4.40;;;1.90;;
27402;SDS011;14862;49.494;8.530;2023-07-13T06:45:09;3.47;;;1.80;;
27402;SDS011;14862;49.494;8.530;2023-07-13T06:47:34;3.28;;;1.90;;
27402;SDS011;14862;49.494;8.530;2023-07-13T06:50:00;4.33;;;1.60;;
27402;SDS011;14862;49.494;8.530;2023-07-13T06:52:25;3.78;;;2.65;;
27402;SDS011;14862;49.494;8.530;2023-07-13T06:54:50;5.00;;;1.73;;
27402;SDS011;14862;49.494;8.530;2023-07-13T06:57:15;1.90;;;1.42;;
27402;SDS011;14862;49.494;8.530;2023-07-13T06:59:41;2.47;;;1.67;;
27402;SDS011;14862;49.494;8.530;2023-07-13T07:02:06;6.40;;;1.93;;
27402;SDS011;14862;49.494;8.530;2023-07-13T07:04:33;4.50;;;2.10;;
27402;SDS011;14862;49.494;8.530;2023-07-13T07:06:58;3.73;;;1.50;;
27402;SDS011;14862;49.494;8.530;2023-07-13T07:09:23;2.60;;;1.50;;
27402;SDS011;14862;49.494;8.530;2023-07-13T07:11:48;3.93;;;1.63;;
27402;SDS011;14862;49.494;8.530;2023-07-13T07:14:13;4.25;;;2.03;;
27402;SDS011;14862;49.494;8.530;2023-07-13T07:16:39;2.43;;;1.70;;
27402;SDS011;14862;49.494;8.530;2023-07-13T07:19:04;3.67;;;2.17;;
27402;SDS011;14862;49.494;8.530;2023-07-13T07:21:29;4.23;;;1.60;;
27402;SDS011;14862;49.494;8.530;2023-07-13T07:23:54;5.15;;;1.98;;
27402;SDS011;14862;49.494;8.530;2023-07-13T07:26:20;3.10;;;1.90;;
27402;SDS011;14862;49.494;8.530;2023-07-13T07:28:45;3.27;;;1.90;;
27402;SDS011;14862;49.494;8.530;2023-07-13T07:31:10;2.57;;;1.40;;
27402;SDS011;14862;49.494;8.530;2023-07-13T07:33:35;4.72;;;2.03;;
27402;SDS011;14862;49.494;8.530;2023-07-13T07:36:01;4.07;;;1.73;;
27402;SDS011;14862;49.494;8.530;2023-07-13T07:38:27;4.78;;;1.70;;
27402;SDS011;14862;49.494;8.530;2023-07-13T07:40:53;2.70;;;1.63;;
27402;SDS011;14862;49.494;8.530;2023-07-13T07:43:18;4.57;;;1.58;;
27402;SDS011;14862;49.494;8.530;2023-07-13T07:45:44;3.75;;;1.60;;
27402;SDS011;14862;49.494;8.530;2023-07-13T07:48:10;4.45;;;1.27;;
27402;SDS011;14862;49.494;8.530;2023-07-13T07:50:35;3.78;;;1.50;;
27402;SDS011;14862;49.494;8.530;2023-07-13T07:53:00;4.47;;;1.40;;
27402;SDS011;14862;49.494;8.530;2023-07-13T07:55:27;3.83;;;1.67;;
27402;SDS011;14862;49.494;8.530;2023-07-13T07:57:52;5.63;;;1.63;;
27402;SDS011;14862;49.494;8.530;2023-07-13T08:00:18;3.53;;;1.67;;
27402;SDS011;14862;49.494;8.530;2023-07-13T08:02:43;2.08;;;1.40;;
27402;SDS011;14862;49.494;8.530;2023-07-13T08:05:09;4.38;;;1.60;;
27402;SDS011;14862;49.494;8.530;2023-07-13T08:07:34;4.30;;;1.30;;
27402;SDS011;14862;49.494;8.530;2023-07-13T08:10:00;5.32;;;1.48;;
27402;SDS011;14862;49.494;8.530;2023-07-13T08:12:25;2.43;;;1.50;;
27402;SDS011;14862;49.494;8.530;2023-07-13T08:14:50;2.83;;;1.73;;
27402;SDS011;14862;49.494;8.530;2023-07-13T08:17:21;2.50;;;1.40;;
27402;SDS011;14862;49.494;8.530;2023-07-13T08:19:46;2.47;;;1.42;;
27402;SDS011;14862;49.494;8.530;2023-07-13T08:22:12;2.93;;;1.40;;
27402;SDS011;14862;49.494;8.530;2023-07-13T08:24:37;4.50;;;1.40;;
27402;SDS011;14862;49.494;8.530;2023-07-13T08:27:02;3.53;;;1.07;;
27402;SDS011;14862;49.494;8.530;2023-07-13T08:29:27;2.95;;;1.13;;
27402;SDS011;14862;49.494;8.530;2023-07-13T08:31:53;3.50;;;1.27;;
27402;SDS011;14862;49.494;8.530;2023-07-13T08:34:19;3.78;;;1.30;;
27402;SDS011;14862;49.494;8.530;2023-07-13T08:36:44;4.93;;;1.67;;
27402;SDS011;14862;49.494;8.530;2023-07-13T08:39:09;3.73;;;1.23;;
27402;SDS011;14862;49.494;8.530;2023-07-13T08:41:34;3.80;;;1.50;;
27402;SDS011;14862;49.494;8.530;2023-07-13T08:44:00;4.43;;;1.10;;
27402;SDS011;14862;49.494;8.530;2023-07-13T08:46:35;6.35;;;1.20;;
27402;SDS011;14862;49.494;8.530;2023-07-13T08:49:02;4.82;;;1.45;;
27402;SDS011;14862;49.494;8.530;2023-07-13T08:51:33;4.13;;;1.40;;
27402;SDS011;14862;49.494;8.530;2023-07-13T08:54:04;2.47;;;1.30;;
27402;SDS011;14862;49.494;8.530;2023-07-13T08:56:30;2.72;;;1.50;;
27402;SDS011;14862;49.494;8.530;2023-07-13T08:58:57;2.22;;;1.20;;
27402;SDS011;14862;49.494;8.530;2023-07-13T09:02:06;2.00;;;1.20;;
27402;SDS011;14862;49.494;8.530;2023-07-13T09:04:15;3.63;;;1.15;;
27402;SDS011;14862;49.494;8.530;2023-07-13T09:09:32;2.10;;;1.30;;
27402;SDS011;14862;49.494;8.530;2023-07-13T09:14:48;4.93;;;1.23;;
27402;SDS011;14862;49.494;8.530;2023-07-13T09:17:17;2.17;;;1.17;;
27402;SDS011;14862;49.494;8.530;2023-07-13T09:19:42;2.63;;;1.23;;
27402;SDS011;14862;49.494;8.530;2023-07-13T09:22:10;4.32;;;1.55;;
27402;SDS011;14862;49.494;8.530;2023-07-13T09:27:23;5.22;;;1.45;;
27402;SDS011;14862;49.494;8.530;2023-07-13T09:29:50;1.63;;;1.00;;
27402;SDS011;14862;49.494;8.530;2023-07-13T09:32:19;1.55;;;1.00;;
27402;SDS011;14862;49.494;8.530;2023-07-13T09:34:51;4.47;;;1.27;;
27402;SDS011;14862;49.494;8.530;2023-07-13T09:37:18;1.90;;;0.88;;
27402;SDS011;14862;49.494;8.530;2023-07-13T09:39:43;4.20;;;1.30;;
27402;SDS011;14862;49.494;8.530;2023-07-13T09:42:16;4.03;;;1.25;;
27402;SDS011;14862;49.494;8.530;2023-07-13T09:47:20;4.90;;;1.67;;
27402;SDS011;14862;49.494;8.530;2023-07-13T09:49:48;1.98;;;1.35;;
27402;SDS011;14862;49.494;8.530;2023-07-13T09:52:18;3.75;;;1.45;;
27402;SDS011;14862;49.494;8.530;2023-07-13T09:54:44;3.57;;;1.43;;
27402;SDS011;14862;49.494;8.530;2023-07-13T09:57:12;5.07;;;1.67;;
27402;SDS011;14862;49.494;8.530;2023-07-13T09:59:40;4.57;;;1.42;;
27402;SDS011;14862;49.494;8.530;2023-07-13T10:04:54;2.92;;;1.50;;
27402;SDS011;14862;49.494;8.530;2023-07-13T10:07:22;2.40;;;1.40;;
27402;SDS011;14862;49.494;8.530;2023-07-13T10:09:47;2.03;;;1.20;;
27402;SDS011;14862;49.494;8.530;2023-07-13T10:12:16;3.42;;;1.50;;
27402;SDS011;14862;49.494;8.530;2023-07-13T10:14:42;2.03;;;1.20;;
27402;SDS011;14862;49.494;8.530;2023-07-13T10:17:08;2.50;;;1.05;;
27402;SDS011;14862;49.494;8.530;2023-07-13T10:19:35;3.85;;;1.30;;
27402;SDS011;14862;49.494;8.530;2023-07-13T10:22:01;2.47;;;1.38;;
27402;SDS011;14862;49.494;8.530;2023-07-13T10:24:32;4.38;;;1.67;;
27402;SDS011;14862;49.494;8.530;2023-07-13T10:29:29;3.60;;;1.25;;
27402;SDS011;14862;49.494;8.530;2023-07-13T10:31:57;4.93;;;1.40;;
27402;SDS011;14862;49.494;8.530;2023-07-13T10:34:23;3.00;;;2.22;;
27402;SDS011;14862;49.494;8.530;2023-07-13T10:36:48;2.78;;;1.13;;
27402;SDS011;14862;49.494;8.530;2023-07-13T10:39:18;5.88;;;1.40;;
27402;SDS011;14862;49.494;8.530;2023-07-13T10:41:44;4.60;;;1.45;;
27402;SDS011;14862;49.494;8.530;2023-07-13T10:44:18;1.63;;;1.30;;
27402;SDS011;14862;49.494;8.530;2023-07-13T10:46:45;2.50;;;1.30;;
27402;SDS011;14862;49.494;8.530;2023-07-13T10:49:10;5.97;;;1.77;;
27402;SDS011;14862;49.494;8.530;2023-07-13T10:51:36;3.42;;;1.50;;
27402;SDS011;14862;49.494;8.530;2023-07-13T10:54:14;5.32;;;1.80;;
27402;SDS011;14862;49.494;8.530;2023-07-13T10:56:41;5.03;;;1.40;;
27402;SDS011;14862;49.494;8.530;2023-07-13T11:02:08;1.83;;;1.10;;
27402;SDS011;14862;49.494;8.530;2023-07-13T11:04:25;2.28;;;1.17;;
27402;SDS011;14862;49.494;8.530;2023-07-13T11:06:52;3.58;;;1.77;;
27402;SDS011;14862;49.494;8.530;2023-07-13T11:11:56;3.58;;;1.50;;
27402;SDS011;14862;49.494;8.530;2023-07-13T11:16:51;2.65;;;1.20;;
27402;SDS011;14862;49.494;8.530;2023-07-13T11:24:28;8.60;;;1.83;;
27402;SDS011;14862;49.494;8.530;2023-07-13T11:26:55;5.38;;;1.30;;
27402;SDS011;14862;49.494;8.530;2023-07-13T11:29:24;3.08;;;1.75;;
27402;SDS011;14862;49.494;8.530;2023-07-13T11:31:54;3.67;;;1.17;;
27402;SDS011;14862;49.494;8.530;2023-07-13T11:34:41;3.97;;;1.33;;
27402;SDS011;14862;49.494;8.530;2023-07-13T11:37:10;2.30;;;1.25;;
27402;SDS011;14862;49.494;8.530;2023-07-13T11:39:37;1.35;;;1.02;;
27402;SDS011;14862;49.494;8.530;2023-07-13T11:42:03;4.38;;;1.45;;
27402;SDS011;14862;49.494;8.530;2023-07-13T11:44:30;1.85;;;1.10;;
27402;SDS011;14862;49.494;8.530;2023-07-13T11:46:56;4.43;;;1.38;;
27402;SDS011;14862;49.494;8.530;2023-07-13T11:49:23;2.33;;;1.30;;
27402;SDS011;14862;49.494;8.530;2023-07-13T11:51:49;2.25;;;1.00;;
27402;SDS011;14862;49.494;8.530;2023-07-13T11:56:51;3.53;;;1.13;;
27402;SDS011;14862;49.494;8.530;2023-07-13T11:59:16;2.70;;;1.20;;
27402;SDS011;14862;49.494;8.530;2023-07-13T12:01:45;2.72;;;1.35;;
27402;SDS011;14862;49.494;8.530;2023-07-13T12:04:27;3.50;;;1.60;;
27402;SDS011;14862;49.494;8.530;2023-07-13T12:06:57;2.97;;;1.27;;
27402;SDS011;14862;49.494;8.530;2023-07-13T12:09:25;2.80;;;0.93;;
27402;SDS011;14862;49.494;8.530;2023-07-13T12:11:50;5.32;;;1.10;;
27402;SDS011;14862;49.494;8.530;2023-07-13T12:14:16;2.38;;;1.02;;
27402;SDS011;14862;49.494;8.530;2023-07-13T12:16:42;2.85;;;1.15;;
27402;SDS011;14862;49.494;8.530;2023-07-13T12:19:14;2.60;;;1.30;;
27402;SDS011;14862;49.494;8.530;2023-07-13T12:21:41;2.55;;;1.00;;
27402;SDS011;14862;49.494;8.530;2023-07-13T12:24:13;3.20;;;1.23;;
27402;SDS011;14862;49.494;8.530;2023-07-13T12:26:39;4.70;;;1.30;;
27402;SDS011;14862;49.494;8.530;2023-07-13T12:29:05;2.77;;;1.37;;
27402;SDS011;14862;49.494;8.530;2023-07-13T12:34:20;3.83;;;1.35;;
27402;SDS011;14862;49.494;8.530;2023-07-13T12:41:48;2.55;;;1.38;;
27402;SDS011;14862;49.494;8.530;2023-07-13T12:44:15;3.63;;;1.50;;
27402;SDS011;14862;49.494;8.530;2023-07-13T12:46:50;2.25;;;1.48;;
27402;SDS011;14862;49.494;8.530;2023-07-13T12:49:16;5.50;;;1.33;;
27402;SDS011;14862;49.494;8.530;2023-07-13T12:51:42;2.35;;;1.17;;
27402;SDS011;14862;49.494;8.530;2023-07-13T12:54:17;2.40;;;1.17;;
27402;SDS011;14862;49.494;8.530;2023-07-13T12:56:44;2.72;;;1.63;;
27402;SDS011;14862;49.494;8.530;2023-07-13T12:59:11;3.95;;;1.30;;
27402;SDS011;14862;49.494;8.530;2023-07-13T13:01:40;8.07;;;2.10;;
27402;SDS011;14862;49.494;8.530;2023-07-13T13:04:08;4.78;;;2.42;;
27402;SDS011;14862;49.494;8.530;2023-07-13T13:06:36;2.03;;;1.30;;
27402;SDS011;14862;49.494;8.530;2023-07-13T13:09:02;3.13;;;1.60;;
27402;SDS011;14862;49.494;8.530;2023-07-13T13:11:29;3.00;;;1.40;;
27402;SDS011;14862;49.494;8.530;2023-07-13T13:13:54;2.60;;;1.40;;
27402;SDS011;14862;49.494;8.530;2023-07-13T13:18:45;2.13;;;1.40;;
27402;SDS011;14862;49.494;8.530;2023-07-13T13:21:10;2.20;;;1.25;;
27402;SDS011;14862;49.494;8.530;2023-07-13T13:23:36;1.30;;;1.20;;
27402;SDS011;14862;49.494;8.530;2023-07-13T13:26:01;3.10;;;1.50;;
27402;SDS011;14862;49.494;8.530;2023-07-13T13:28:26;1.27;;;1.17;;
27402;SDS011;14862;49.494;8.530;2023-07-13T13:30:52;3.25;;;1.23;;
27402;SDS011;14862;49.494;8.530;2023-07-13T13:33:18;3.40;;;1.25;;
27402;SDS011;14862;49.494;8.530;2023-07-13T13:35:43;2.95;;;1.50;;
27402;SDS011;14862;49.494;8.530;2023-07-13T13:38:19;3.70;;;1.85;;
27402;SDS011;14862;49.494;8.530;2023-07-13T13:40:45;3.13;;;1.52;;
27402;SDS011;14862;49.494;8.530;2023-07-13T13:43:44;4.68;;;1.40;;
27402;SDS011;14862;49.494;8.530;2023-07-13T13:46:02;1.80;;;1.23;;
27402;SDS011;14862;49.494;8.530;2023-07-13T13:48:31;2.97;;;1.23;;
27402;SDS011;14862;49.494;8.530;2023-07-13T13:50:57;1.67;;;1.20;;
27402;SDS011;14862;49.494;8.530;2023-07-13T13:53:23;4.43;;;1.50;;
27402;SDS011;14862;49.494;8.530;2023-07-13T13:55:49;4.90;;;1.38;;
27402;SDS011;14862;49.494;8.530;2023-07-13T13:58:14;2.13;;;1.10;;
27402;SDS011;14862;49.494;8.530;2023-07-13T14:00:39;2.10;;;1.30;;
27402;SDS011;14862;49.494;8.530;2023-07-13T14:03:04;3.10;;;1.30;;
27402;SDS011;14862;49.494;8.530;2023-07-13T14:05:31;5.60;;;1.70;;
27402;SDS011;14862;49.494;8.530;2023-07-13T14:07:57;9.75;;;1.83;;
27402;SDS011;14862;49.494;8.530;2023-07-13T14:10:22;2.90;;;1.40;;
27402;SDS011;14862;49.494;8.530;2023-07-13T14:12:50;2.78;;;1.30;;
27402;SDS011;14862;49.494;8.530;2023-07-13T14:15:28;2.53;;;1.25;;
27402;SDS011;14862;49.494;8.530;2023-07-13T14:17:55;3.42;;;1.38;;
27402;SDS011;14862;49.494;8.530;2023-07-13T14:20:22;3.28;;;1.30;;
27402;SDS011;14862;49.494;8.530;2023-07-13T14:22:49;2.50;;;1.02;;
27402;SDS011;14862;49.494;8.530;2023-07-13T14:25:15;2.00;;;1.15;;
27402;SDS011;14862;49.494;8.530;2023-07-13T14:27:41;2.75;;;1.45;;
27402;SDS011;14862;49.494;8.530;2023-07-13T14:30:17;3.03;;;1.33;;
27402;SDS011;14862;49.494;8.530;2023-07-13T14:32:43;2.03;;;1.10;;
27402;SDS011;14862;49.494;8.530;2023-07-13T14:35:13;1.40;;;0.90;;
27402;SDS011;14862;49.494;8.530;2023-07-13T14:37:41;3.33;;;1.10;;
27402;SDS011;14862;49.494;8.530;2023-07-13T14:40:14;5.63;;;1.33;;
27402;SDS011;14862;49.494;8.530;2023-07-13T14:42:39;2.83;;;1.30;;
27402;SDS011;14862;49.494;8.530;2023-07-13T14:45:04;2.20;;;1.40;;
27402;SDS011;14862;49.494;8.530;2023-07-13T14:47:30;3.38;;;1.75;;
27402;SDS011;14862;49.494;8.530;2023-07-13T14:49:55;2.83;;;1.55;;
27402;SDS011;14862;49.494;8.530;2023-07-13T14:52:21;3.20;;;1.70;;
27402;SDS011;14862;49.494;8.530;2023-07-13T14:54:48;6.32;;;1.77;;
27402;SDS011;14862;49.494;8.530;2023-07-13T14:57:14;4.05;;;1.48;;
27402;SDS011;14862;49.494;8.530;2023-07-13T14:59:40;3.67;;;1.65;;
27402;SDS011;14862;49.494;8.530;2023-07-13T15:02:15;6.50;;;2.15;;
27402;SDS011;14862;49.494;8.530;2023-07-13T15:04:41;2.97;;;1.38;;
27402;SDS011;14862;49.494;8.530;2023-07-13T15:07:07;2.88;;;1.30;;
27402;SDS011;14862;49.494;8.530;2023-07-13T15:09:34;5.13;;;1.80;;
27402;SDS011;14862;49.494;8.530;2023-07-13T15:11:59;3.83;;;1.33;;
27402;SDS011;14862;49.494;8.530;2023-07-13T15:14:25;2.80;;;1.47;;
27402;SDS011;14862;49.494;8.530;2023-07-13T15:16:51;3.05;;;1.20;;
27402;SDS011;14862;49.494;8.530;2023-07-13T15:19:18;8.07;;;2.08;;
27402;SDS011;14862;49.494;8.530;2023-07-13T15:21:43;1.90;;;1.10;;
27402;SDS011;14862;49.494;8.530;2023-07-13T15:24:09;4.35;;;1.30;;
27402;SDS011;14862;49.494;8.530;2023-07-13T15:26:35;2.15;;;1.30;;
27402;SDS011;14862;49.494;8.530;2023-07-13T15:29:00;4.05;;;1.42;;
27402;SDS011;14862;49.494;8.530;2023-07-13T15:31:26;2.67;;;1.48;;